createdAt,value
2022-09-30T00:01:26.083Z,98242.44
2022-09-30T00:03:54.214Z,98240.94
2022-09-30T00:06:21.744Z,98238.91
2022-09-30T00:08:48.781Z,98249.69
2022-09-30T00:11:18.197Z,98247.50
2022-09-30T00:13:47.106Z,98254.69
2022-09-30T00:16:15.532Z,98250.78
2022-09-30T00:18:43.439Z,98238.69
2022-09-30T00:21:11.563Z,98242.00
2022-09-30T00:23:39.125Z,98248.09
2022-09-30T00:26:09.730Z,98252.56
2022-09-30T00:28:36.496Z,98250.78
2022-09-30T00:31:07.642Z,98255.13
2022-09-30T00:33:35.172Z,98258.81
2022-09-30T00:36:02.617Z,98250.56
2022-09-30T00:38:29.622Z,98253.13
2022-09-30T00:40:56.597Z,98245.88
2022-09-30T00:43:53.509Z,98240.91
2022-09-30T00:46:28.848Z,98251.81
2022-09-30T00:48:57.302Z,98256.63
2022-09-30T00:51:37.370Z,98257.16
2022-09-30T00:54:07.698Z,98254.56
2022-09-30T00:56:39.356Z,98262.44
2022-09-30T00:59:13.006Z,98257.09
2022-09-30T01:01:41.496Z,98257.09
2022-09-30T01:04:26.728Z,98260.09
2022-09-30T01:06:53.816Z,98256.44
2022-09-30T01:09:21.023Z,98254.78
2022-09-30T01:11:48.167Z,98258.75
2022-09-30T01:14:21.874Z,98260.00
2022-09-30T01:17:33.394Z,98257.22
2022-09-30T01:20:51.710Z,98267.00
2022-09-30T01:23:35.974Z,98265.94
2022-09-30T01:26:50.940Z,98267.31
2022-09-30T01:29:56.332Z,98265.22
2022-09-30T01:32:49.420Z,98268.31
2022-09-30T01:35:31.996Z,98258.84
2022-09-30T01:38:30.031Z,98263.13
2022-09-30T01:41:10.616Z,98256.78
2022-09-30T01:44:06.629Z,98265.56
2022-09-30T01:46:46.643Z,98269.69
2022-09-30T01:49:44.207Z,98267.53
2022-09-30T01:52:33.234Z,98275.06
2022-09-30T01:55:23.099Z,98271.75
2022-09-30T01:57:59.060Z,98258.56
2022-09-30T02:00:26.189Z,98269.13
2022-09-30T02:03:00.115Z,98273.16
2022-09-30T02:05:38.064Z,98276.28
2022-09-30T02:08:08.421Z,98286.19
2022-09-30T02:10:39.616Z,98282.59
2022-09-30T02:13:15.114Z,98282.34
2022-09-30T02:15:45.691Z,98286.31
2022-09-30T02:18:42.477Z,98289.22
2022-09-30T02:21:10.765Z,98295.53
2022-09-30T02:23:41.118Z,98290.72
2022-09-30T02:26:11.919Z,98291.13
2022-09-30T02:28:42.740Z,98293.03
2022-09-30T02:31:11.447Z,98289.09
2022-09-30T02:33:45.338Z,98291.00
2022-09-30T02:36:25.169Z,98294.13
2022-09-30T02:39:11.385Z,98294.44
2022-09-30T02:41:45.763Z,98290.84
2022-09-30T02:44:12.907Z,98294.03
2022-09-30T02:47:24.747Z,98293.75
2022-09-30T02:50:35.401Z,98293.59
2022-09-30T02:53:34.209Z,98301.16
2022-09-30T02:56:03.796Z,98303.09
2022-09-30T02:58:30.863Z,98301.97
2022-09-30T03:00:58.021Z,98295.81
2022-09-30T03:03:29.481Z,98305.81
2022-09-30T03:05:56.684Z,98305.41
2022-09-30T03:08:23.778Z,98305.28
2022-09-30T03:10:51.976Z,98302.09
2022-09-30T03:14:00.328Z,98308.16
2022-09-30T03:16:45.346Z,98307.34
2022-09-30T03:19:46.391Z,98319.97
2022-09-30T03:22:56.970Z,98323.94
2022-09-30T03:25:51.491Z,98321.47
2022-09-30T03:28:25.907Z,98332.34
2022-09-30T03:31:51.381Z,98325.88
2022-09-30T03:34:59.641Z,98326.84
2022-09-30T03:37:57.762Z,98332.88
2022-09-30T03:40:37.751Z,98336.59
2022-09-30T03:43:11.131Z,98328.28
2022-09-30T03:45:41.861Z,98333.25
2022-09-30T03:48:10.737Z,98340.69
2022-09-30T03:50:38.485Z,98338.19
2022-09-30T03:53:11.303Z,98344.38
2022-09-30T03:55:58.502Z,98351.06
2022-09-30T03:58:25.947Z,98346.66
2022-09-30T04:00:54.847Z,98344.88
2022-09-30T04:03:23.109Z,98348.47
2022-09-30T04:05:49.958Z,98354.78
2022-09-30T04:08:17.007Z,98343.50
2022-09-30T04:10:44.566Z,98356.94
2022-09-30T04:13:12.800Z,98353.81
2022-09-30T04:15:40.900Z,98358.22
2022-09-30T04:18:08.153Z,98366.31
2022-09-30T04:20:35.078Z,98361.66
2022-09-30T04:23:02.348Z,98376.06
2022-09-30T04:25:29.339Z,98372.59
2022-09-30T04:27:56.647Z,98377.25
2022-09-30T04:30:26.280Z,98371.06
2022-09-30T04:32:54.213Z,98374.66
2022-09-30T04:35:20.997Z,98369.19
2022-09-30T04:37:48.363Z,98376.13
2022-09-30T04:40:16.098Z,98368.50
2022-09-30T04:42:43.547Z,98374.59
2022-09-30T04:45:12.118Z,98371.03
2022-09-30T04:47:40.155Z,98381.97
2022-09-30T04:50:07.582Z,98385.47
2022-09-30T04:52:34.472Z,98402.44
2022-09-30T04:55:01.173Z,98405.22
2022-09-30T04:57:28.212Z,98408.34
2022-09-30T04:59:55.261Z,98409.75
2022-09-30T05:02:21.996Z,98407.38
2022-09-30T05:04:48.814Z,98421.13
2022-09-30T05:07:15.598Z,98423.97
2022-09-30T05:09:42.501Z,98426.34
2022-09-30T05:12:09.562Z,98422.91
2022-09-30T05:14:36.275Z,98421.63
2022-09-30T05:17:03.021Z,98422.66
2022-09-30T05:19:29.853Z,98422.00
2022-09-30T05:21:56.834Z,98421.41
2022-09-30T05:24:23.863Z,98421.69
2022-09-30T05:26:50.655Z,98427.16
2022-09-30T05:29:17.741Z,98427.78
2022-09-30T05:31:44.654Z,98437.41
2022-09-30T05:34:11.606Z,98435.25
2022-09-30T05:36:38.610Z,98445.22
2022-09-30T05:39:05.376Z,98443.94
2022-09-30T05:41:33.021Z,98453.88
2022-09-30T05:44:01.299Z,98452.25
2022-09-30T05:46:28.513Z,98452.88
2022-09-30T05:48:55.601Z,98446.00
2022-09-30T05:51:22.496Z,98463.56
2022-09-30T05:53:49.317Z,98460.97
2022-09-30T05:56:16.122Z,98465.44
2022-09-30T05:58:42.902Z,98473.47
2022-09-30T06:01:14.716Z,98477.63
2022-09-30T06:03:45.854Z,98479.06
2022-09-30T06:06:14.006Z,98484.03
2022-09-30T06:08:41.595Z,98480.38
2022-09-30T06:11:12.191Z,98483.84
2022-09-30T06:13:40.311Z,98489.84
2022-09-30T06:16:07.867Z,98493.88
2022-09-30T06:18:35.165Z,98498.97
2022-09-30T06:21:03.887Z,98500.53
2022-09-30T06:23:31.752Z,98505.34
2022-09-30T06:25:58.595Z,98509.88
2022-09-30T06:28:25.518Z,98506.44
2022-09-30T06:30:52.338Z,98512.13
2022-09-30T06:33:19.586Z,98508.34
2022-09-30T06:35:47.866Z,98519.13
2022-09-30T06:38:16.037Z,98524.56
2022-09-30T06:40:43.834Z,98535.09
2022-09-30T06:43:11.631Z,98538.72
2022-09-30T06:45:38.598Z,98545.72
2022-09-30T06:48:07.436Z,98541.22
2022-09-30T06:50:34.904Z,98530.78
2022-09-30T06:53:03.756Z,98530.41
2022-09-30T06:55:30.784Z,98530.75
2022-09-30T06:57:57.967Z,98533.69
2022-09-30T07:00:26.481Z,98532.16
2022-09-30T07:02:59.335Z,98536.06
2022-09-30T07:05:26.634Z,98539.47
2022-09-30T07:07:54.222Z,98537.16
2022-09-30T07:10:21.219Z,98544.22
2022-09-30T07:12:52.179Z,98535.00
2022-09-30T07:15:23.497Z,98544.22
2022-09-30T07:17:54.464Z,98543.59
2022-09-30T07:20:21.195Z,98545.81
2022-09-30T07:22:48.016Z,98556.00
2022-09-30T07:25:15.966Z,98557.31
2022-09-30T07:27:42.822Z,98551.44
2022-09-30T07:30:16.105Z,98562.28
2022-09-30T07:32:47.898Z,98552.22
2022-09-30T07:35:14.716Z,98556.91
2022-09-30T07:37:41.449Z,98556.69
2022-09-30T07:40:09.751Z,98555.81
2022-09-30T07:42:46.224Z,98560.81
2022-09-30T07:45:17.270Z,98552.28
2022-09-30T07:47:44.002Z,98558.13
2022-09-30T07:50:12.548Z,98563.53
2022-09-30T07:52:39.224Z,98572.50
2022-09-30T07:55:06.266Z,98571.31
2022-09-30T07:57:32.954Z,98568.19
2022-09-30T08:00:08.149Z,98561.75
2022-09-30T08:02:46.469Z,98579.13
2022-09-30T08:05:13.314Z,98581.63
2022-09-30T08:07:40.571Z,98581.84
2022-09-30T08:10:08.076Z,98577.47
2022-09-30T08:12:35.363Z,98582.13
2022-09-30T08:15:02.165Z,98588.09
2022-09-30T08:17:28.901Z,98590.00
2022-09-30T08:19:55.584Z,98585.72
2022-09-30T08:22:24.181Z,98582.59
2022-09-30T08:24:50.980Z,98584.59
2022-09-30T08:27:17.717Z,98585.31
2022-09-30T08:30:04.173Z,98585.19
2022-09-30T08:32:32.073Z,98596.81
2022-09-30T08:34:58.784Z,98597.38
2022-09-30T08:37:25.530Z,98600.56
2022-09-30T08:39:52.325Z,98598.00
2022-09-30T08:42:40.272Z,98603.28
2022-09-30T08:45:59.154Z,98601.75
2022-09-30T08:48:49.347Z,98605.97
2022-09-30T08:51:34.644Z,98605.78
2022-09-30T08:54:04.189Z,98607.31
2022-09-30T08:56:32.364Z,98604.06
2022-09-30T08:59:23.013Z,98610.66
2022-09-30T09:01:52.036Z,98606.56
2022-09-30T09:04:19.249Z,98611.22
2022-09-30T09:07:13.590Z,98606.34
2022-09-30T09:10:04.346Z,98598.69
2022-09-30T09:13:17.764Z,98599.22
2022-09-30T09:16:06.716Z,98600.06
2022-09-30T09:18:42.968Z,98601.88
2022-09-30T09:21:25.388Z,98598.84
2022-09-30T09:23:53.975Z,98597.88
2022-09-30T09:26:20.746Z,98594.56
2022-09-30T09:29:27.276Z,98598.94
2022-09-30T09:31:55.350Z,98596.50
2022-09-30T09:34:24.407Z,98599.78
2022-09-30T09:37:18.839Z,98589.31
2022-09-30T09:40:11.206Z,98592.59
2022-09-30T09:42:58.694Z,98590.81
2022-09-30T09:45:48.562Z,98588.88
2022-09-30T09:48:17.720Z,98588.47
2022-09-30T09:51:19.254Z,98593.94
2022-09-30T09:53:58.662Z,98591.50
2022-09-30T09:56:33.630Z,98580.69
2022-09-30T09:59:13.409Z,98578.94
2022-09-30T10:01:46.969Z,98574.41
2022-09-30T10:04:19.518Z,98573.41
2022-09-30T10:06:56.837Z,98570.34
2022-09-30T10:09:29.447Z,98564.63
2022-09-30T10:12:08.865Z,98566.38
2022-09-30T10:14:59.018Z,98566.16
2022-09-30T10:17:34.647Z,98566.41
2022-09-30T10:20:07.675Z,98578.25
2022-09-30T10:22:36.147Z,98567.00
2022-09-30T10:25:11.764Z,98573.69
2022-09-30T10:27:48.183Z,98568.88
2022-09-30T10:30:31.133Z,98574.16
2022-09-30T10:32:58.829Z,98574.91
2022-09-30T10:35:26.507Z,98575.59
2022-09-30T10:37:54.290Z,98564.75
2022-09-30T10:40:22.940Z,98572.50
2022-09-30T10:42:49.901Z,98576.00
2022-09-30T10:45:28.335Z,98572.72
2022-09-30T10:47:56.100Z,98566.13
2022-09-30T10:50:25.509Z,98567.13
2022-09-30T10:53:00.903Z,98566.16
2022-09-30T10:55:44.369Z,98558.22
2022-09-30T10:58:36.324Z,98570.38
2022-09-30T11:01:17.085Z,98562.13
2022-09-30T11:03:55.088Z,98559.13
2022-09-30T11:06:25.381Z,98556.13
2022-09-30T11:09:34.868Z,98556.69
2022-09-30T11:12:12.252Z,98564.66
2022-09-30T11:14:44.804Z,98552.72
2022-09-30T11:17:31.676Z,98557.59
2022-09-30T11:20:11.934Z,98556.88
2022-09-30T11:23:00.420Z,98554.81
2022-09-30T11:25:45.502Z,98557.66
2022-09-30T11:28:45.999Z,98546.56
2022-09-30T11:32:00.271Z,98540.75
2022-09-30T11:34:38.682Z,98542.44
2022-09-30T11:37:12.828Z,98543.00
2022-09-30T11:40:09.275Z,98542.75
2022-09-30T11:42:49.253Z,98539.56
2022-09-30T11:45:56.055Z,98538.78
2022-09-30T11:48:46.640Z,98541.00
2022-09-30T11:51:32.925Z,98544.97
2022-09-30T11:54:13.255Z,98538.22
2022-09-30T11:56:58.371Z,98546.47
2022-09-30T11:59:31.416Z,98539.91
2022-09-30T12:02:02.226Z,98542.47
2022-09-30T12:04:42.254Z,98546.66
2022-09-30T12:07:17.753Z,98544.13
2022-09-30T12:09:48.201Z,98543.47
2022-09-30T12:12:17.907Z,98546.28
2022-09-30T12:14:51.171Z,98540.06
2022-09-30T12:17:39.319Z,98542.97
2022-09-30T12:20:33.399Z,98544.78
2022-09-30T12:23:21.404Z,98551.63
2022-09-30T12:25:56.523Z,98544.94
2022-09-30T12:29:03.994Z,98543.19
2022-09-30T12:31:39.981Z,98543.59
2022-09-30T12:34:37.075Z,98540.84
2022-09-30T12:37:15.760Z,98536.66
2022-09-30T12:40:31.877Z,98533.38
2022-09-30T12:43:17.855Z,98531.88
2022-09-30T12:46:09.047Z,98540.81
2022-09-30T12:48:54.094Z,98541.63
2022-09-30T12:51:31.480Z,98540.13
2022-09-30T12:54:17.099Z,98535.50
2022-09-30T12:56:45.059Z,98529.97
2022-09-30T12:59:13.462Z,98528.31
2022-09-30T13:01:42.305Z,98544.38
2022-09-30T13:04:19.127Z,98537.03
2022-09-30T13:07:06.123Z,98540.44
2022-09-30T13:09:37.800Z,98529.91
2022-09-30T13:12:26.496Z,98537.44
2022-09-30T13:15:24.210Z,98536.03
2022-09-30T13:17:50.943Z,98528.31
2022-09-30T13:21:03.729Z,98541.31
2022-09-30T13:23:40.759Z,98546.09
2022-09-30T13:26:36.729Z,98544.22
2022-09-30T13:29:26.666Z,98542.50
2022-09-30T13:32:03.444Z,98531.84
2022-09-30T13:34:35.724Z,98531.50
2022-09-30T13:37:06.356Z,98533.38
2022-09-30T13:39:55.899Z,98536.94
2022-09-30T13:42:27.389Z,98535.72
2022-09-30T13:45:31.527Z,98538.47
2022-09-30T13:48:31.324Z,98547.28
2022-09-30T13:51:00.201Z,98539.59
2022-09-30T13:53:37.402Z,98545.72
2022-09-30T13:56:10.397Z,98541.25
2022-09-30T13:59:10.126Z,98530.50
2022-09-30T14:02:11.707Z,98531.13
2022-09-30T14:04:55.454Z,98522.13
2022-09-30T14:08:07.036Z,98531.38
2022-09-30T14:10:51.987Z,98524.16
2022-09-30T14:13:50.390Z,98534.50
2022-09-30T14:17:06.468Z,98534.81
2022-09-30T14:20:01.505Z,98538.31
2022-09-30T14:22:30.288Z,98530.00
2022-09-30T14:24:58.080Z,98525.88
2022-09-30T14:27:44.178Z,98531.09
2022-09-30T14:30:21.261Z,98537.84
2022-09-30T14:33:18.699Z,98528.78
2022-09-30T14:35:45.642Z,98522.91
2022-09-30T14:38:23.478Z,98511.53
2022-09-30T14:40:55.535Z,98516.66
2022-09-30T14:43:24.943Z,98520.41
2022-09-30T14:45:55.390Z,98521.50
2022-09-30T14:48:25.577Z,98521.44
2022-09-30T14:51:01.840Z,98518.56
2022-09-30T14:53:42.325Z,98518.72
2022-09-30T14:56:23.776Z,98511.00
2022-09-30T14:58:53.436Z,98511.69
2022-09-30T15:01:26.203Z,98519.75
2022-09-30T15:03:56.700Z,98521.94
2022-09-30T15:06:26.273Z,98525.16
2022-09-30T15:09:07.041Z,98520.84
2022-09-30T15:11:39.531Z,98528.78
2022-09-30T15:14:14.212Z,98527.25
2022-09-30T15:16:53.036Z,98534.75
2022-09-30T15:19:23.018Z,98532.41
2022-09-30T15:21:54.961Z,98532.69
2022-09-30T15:24:24.588Z,98530.34
2022-09-30T15:26:53.463Z,98530.66
2022-09-30T15:29:20.303Z,98529.00
2022-09-30T15:31:58.741Z,98526.22
2022-09-30T15:34:26.217Z,98530.16
2022-09-30T15:36:59.887Z,98525.06
2022-09-30T15:39:48.800Z,98531.22
2022-09-30T15:42:29.317Z,98524.50
2022-09-30T15:44:59.608Z,98529.59
2022-09-30T15:47:27.987Z,98529.50
2022-09-30T15:49:55.547Z,98524.34
2022-09-30T15:52:40.759Z,98525.69
2022-09-30T15:55:32.557Z,98524.03
2022-09-30T15:58:01.111Z,98515.28
2022-09-30T16:00:39.445Z,98522.69
2022-09-30T16:03:13.400Z,98520.03
2022-09-30T16:05:41.582Z,98519.13
2022-09-30T16:08:09.993Z,98517.38
2022-09-30T16:10:37.802Z,98516.53
2022-09-30T16:13:07.122Z,98506.69
2022-09-30T16:15:38.838Z,98502.13
2022-09-30T16:18:05.701Z,98509.16
2022-09-30T16:20:32.431Z,98509.16
2022-09-30T16:23:01.882Z,98511.88
2022-09-30T16:25:33.818Z,98509.38
2022-09-30T16:28:14.554Z,98513.88
2022-09-30T16:30:46.758Z,98499.72
2022-09-30T16:33:15.178Z,98501.56
2022-09-30T16:35:45.493Z,98499.63
2022-09-30T16:38:13.741Z,98501.69
2022-09-30T16:40:40.936Z,98499.78
2022-09-30T16:43:08.200Z,98502.13
2022-09-30T16:45:35.523Z,98498.19
2022-09-30T16:48:02.948Z,98494.88
2022-09-30T16:50:39.694Z,98494.88
2022-09-30T16:53:06.804Z,98496.97
2022-09-30T16:55:33.588Z,98499.03
2022-09-30T16:58:00.433Z,98506.50
2022-09-30T17:00:28.925Z,98508.38
2022-09-30T17:02:55.715Z,98496.38
2022-09-30T17:05:24.312Z,98497.44
2022-09-30T17:08:01.125Z,98507.03
2022-09-30T17:10:30.430Z,98507.88
2022-09-30T17:13:00.549Z,98512.69
2022-09-30T17:15:29.264Z,98517.84
2022-09-30T17:17:56.478Z,98514.59
2022-09-30T17:20:23.900Z,98516.78
2022-09-30T17:22:50.885Z,98514.03
2022-09-30T17:25:18.726Z,98514.72
2022-09-30T17:27:50.221Z,98517.06
2022-09-30T17:30:18.349Z,98518.34
2022-09-30T17:32:45.787Z,98520.00
2022-09-30T17:35:12.995Z,98527.94
2022-09-30T17:37:45.549Z,98526.28
2022-09-30T17:40:32.794Z,98522.50
2022-09-30T17:43:08.823Z,98529.75
2022-09-30T17:45:36.108Z,98533.84
2022-09-30T17:48:03.630Z,98537.78
2022-09-30T17:50:30.394Z,98545.03
2022-09-30T17:52:57.363Z,98534.78
2022-09-30T17:55:24.719Z,98541.50
2022-09-30T17:57:51.603Z,98536.38
2022-09-30T18:00:19.514Z,98545.41
2022-09-30T18:02:46.387Z,98542.44
2022-09-30T18:05:14.758Z,98546.56
2022-09-30T18:07:41.856Z,98544.00
2022-09-30T18:10:09.107Z,98543.78
2022-09-30T18:12:41.287Z,98548.63
2022-09-30T18:15:10.029Z,98549.59
2022-09-30T18:17:36.961Z,98543.97
2022-09-30T18:20:04.457Z,98554.50
2022-09-30T18:22:31.389Z,98557.13
2022-09-30T18:25:16.835Z,98558.47
2022-09-30T18:27:43.661Z,98561.31
2022-09-30T18:30:12.025Z,98564.63
2022-09-30T18:32:39.218Z,98571.38
2022-09-30T18:35:10.265Z,98567.84
2022-09-30T18:37:37.012Z,98571.06
2022-09-30T18:40:04.106Z,98574.41
2022-09-30T18:42:30.772Z,98569.59
2022-09-30T18:44:57.849Z,98569.59
2022-09-30T18:47:24.657Z,98571.81
2022-09-30T18:49:51.456Z,98565.16
2022-09-30T18:52:18.233Z,98568.25
2022-09-30T18:54:44.995Z,98563.97
2022-09-30T18:57:12.106Z,98567.34
2022-09-30T18:59:38.860Z,98574.25
2022-09-30T19:02:05.730Z,98574.63
2022-09-30T19:04:32.792Z,98575.81
2022-09-30T19:06:59.658Z,98575.75
2022-09-30T19:09:26.977Z,98570.25
2022-09-30T19:11:53.800Z,98572.25
2022-09-30T19:14:20.834Z,98566.88
2022-09-30T19:16:47.667Z,98565.63
2022-09-30T19:19:15.834Z,98563.66
2022-09-30T19:21:44.903Z,98563.03
2022-09-30T19:24:11.627Z,98567.41
2022-09-30T19:26:39.183Z,98561.69
2022-09-30T19:29:07.912Z,98562.31
2022-09-30T19:31:37.090Z,98550.38
2022-09-30T19:34:04.490Z,98553.53
2022-09-30T19:36:42.128Z,98552.09
2022-09-30T19:39:12.490Z,98559.28
2022-09-30T19:41:39.638Z,98556.53
2022-09-30T19:44:06.425Z,98550.47
2022-09-30T19:46:33.386Z,98549.91
2022-09-30T19:49:00.043Z,98553.53
2022-09-30T19:51:29.436Z,98547.50
2022-09-30T19:54:05.418Z,98561.50
2022-09-30T19:56:34.566Z,98556.88
2022-09-30T19:59:01.404Z,98565.22
2022-09-30T20:01:29.382Z,98554.38
2022-09-30T20:03:57.773Z,98558.34
2022-09-30T20:06:24.661Z,98550.31
2022-09-30T20:09:00.404Z,98549.19
2022-09-30T20:11:30.146Z,98551.03
2022-09-30T20:14:15.737Z,98545.53
2022-09-30T20:16:43.846Z,98541.03
2022-09-30T20:19:13.924Z,98549.53
2022-09-30T20:21:43.932Z,98549.53
2022-09-30T20:24:16.953Z,98538.56
2022-09-30T20:26:44.859Z,98539.66
2022-09-30T20:29:12.129Z,98539.94
2022-09-30T20:31:44.163Z,98540.19
2022-09-30T20:34:15.968Z,98548.94
2022-09-30T20:36:42.995Z,98550.78
2022-09-30T20:39:10.298Z,98555.19
2022-09-30T20:41:38.646Z,98560.69
2022-09-30T20:44:07.578Z,98559.88
2022-09-30T20:46:35.030Z,98558.88
2022-09-30T20:49:02.614Z,98565.38
2022-09-30T20:51:30.808Z,98558.19
2022-09-30T20:53:59.107Z,98569.38
2022-09-30T20:56:28.474Z,98568.69
2022-09-30T20:58:59.832Z,98573.47
2022-09-30T21:01:26.810Z,98570.28
2022-09-30T21:03:54.061Z,98579.69
2022-09-30T21:06:25.253Z,98589.63
2022-09-30T21:08:52.910Z,98583.81
2022-09-30T21:11:20.333Z,98590.31
2022-09-30T21:13:52.477Z,98585.47
2022-09-30T21:16:22.241Z,98584.94
2022-09-30T21:18:53.150Z,98583.84
2022-09-30T21:21:21.807Z,98583.69
2022-09-30T21:23:48.933Z,98570.84
2022-09-30T21:26:17.449Z,98576.00
2022-09-30T21:28:49.243Z,98570.84
2022-09-30T21:31:25.154Z,98570.28
2022-09-30T21:33:56.723Z,98569.13
2022-09-30T21:36:24.414Z,98568.22
2022-09-30T21:38:51.638Z,98563.09
2022-09-30T21:41:19.827Z,98562.81
2022-09-30T21:43:47.247Z,98557.34
2022-09-30T21:46:15.367Z,98571.63
2022-09-30T21:48:42.735Z,98567.91
2022-09-30T21:51:10.306Z,98564.19
2022-09-30T21:53:39.117Z,98567.09
2022-09-30T21:56:07.017Z,98560.91
2022-09-30T21:58:33.954Z,98565.16
2022-09-30T22:01:02.653Z,98559.66
2022-09-30T22:03:31.200Z,98558.13
2022-09-30T22:05:59.067Z,98554.53
2022-09-30T22:08:26.783Z,98549.63
2022-09-30T22:10:53.716Z,98540.97
2022-09-30T22:13:20.527Z,98541.22
2022-09-30T22:15:47.606Z,98542.69
2022-09-30T22:18:19.677Z,98536.34
2022-09-30T22:20:48.076Z,98539.53
2022-09-30T22:23:17.689Z,98533.88
2022-09-30T22:25:44.440Z,98533.38
2022-09-30T22:28:11.631Z,98535.50
2022-09-30T22:30:38.287Z,98531.56
2022-09-30T22:33:23.890Z,98530.03
2022-09-30T22:36:09.145Z,98526.69
2022-09-30T22:38:36.312Z,98522.63
2022-09-30T22:41:03.531Z,98522.56
2022-09-30T22:43:34.244Z,98523.97
2022-09-30T22:46:07.750Z,98515.69
2022-09-30T22:48:35.335Z,98508.97
2022-09-30T22:51:02.532Z,98508.00
2022-09-30T22:53:30.110Z,98508.84
2022-09-30T22:55:57.270Z,98511.03
2022-09-30T22:58:25.380Z,98512.91
2022-09-30T23:00:57.210Z,98518.72
2022-09-30T23:03:26.167Z,98512.66
2022-09-30T23:05:54.005Z,98509.25
2022-09-30T23:08:20.832Z,98503.72
2022-09-30T23:10:50.053Z,98497.53
2022-09-30T23:13:20.196Z,98508.28
2022-09-30T23:15:48.024Z,98500.81
2022-09-30T23:18:17.323Z,98513.84
2022-09-30T23:20:54.586Z,98511.88
2022-09-30T23:23:21.540Z,98507.63
2022-09-30T23:25:48.304Z,98507.53
2022-09-30T23:28:15.365Z,98508.63
2022-09-30T23:30:42.099Z,98513.97
2022-09-30T23:33:12.991Z,98505.69
2022-09-30T23:35:45.738Z,98504.84
2022-09-30T23:38:12.613Z,98497.75
2022-09-30T23:40:46.823Z,98499.38
2022-09-30T23:43:14.262Z,98498.13
2022-09-30T23:45:41.786Z,98502.78
2022-09-30T23:48:09.141Z,98499.63
2022-09-30T23:50:35.904Z,98503.78
2022-09-30T23:53:02.633Z,98499.91
2022-09-30T23:55:29.910Z,98499.06
2022-09-30T23:57:59.395Z,98503.50
